sensor_id;sensor_type;location;lat;lon;timestamp;pressure;altitude;pressure_sealevel;temperature;humidity
57885;BME280;43703;51.060;-0.086;2023-02-21T00:00:11;100765.18;;;4.47;83.91
57885;BME280;43703;51.060;-0.086;2023-02-21T00:02:36;100761.70;;;4.42;83.03
57885;BME280;43703;51.060;-0.086;2023-02-21T00:05:04;100767.48;;;4.65;85.21
57885;BME280;43703;51.060;-0.086;2023-02-21T00:07:27;100768.54;;;5.14;82.43
57885;BME280;43703;51.060;-0.086;2023-02-21T00:09:53;100771.70;;;5.55;80.05
57885;BME280;43703;51.060;-0.086;2023-02-21T00:12:18;100769.80;;;4.76;83.10
57885;BME280;43703;51.060;-0.086;2023-02-21T00:14:43;100772.78;;;4.30;84.13
57885;BME280;43703;51.060;-0.086;2023-02-21T00:17:09;100769.58;;;4.47;85.70
57885;BME280;43703;51.060;-0.086;2023-02-21T00:19:34;100765.87;;;4.23;85.19
57885;BME280;43703;51.060;-0.086;2023-02-21T00:22:00;100758.93;;;4.42;83.94
57885;BME280;43703;51.060;-0.086;2023-02-21T00:24:25;100758.96;;;4.43;83.90
57885;BME280;43703;51.060;-0.086;2023-02-21T00:26:51;100760.48;;;4.44;83.61
57885;BME280;43703;51.060;-0.086;2023-02-21T00:29:17;100764.60;;;5.02;82.86
57885;BME280;43703;51.060;-0.086;2023-02-21T00:31:42;100760.20;;;5.11;82.08
57885;BME280;43703;51.060;-0.086;2023-02-21T00:34:07;100757.05;;;4.46;82.81
57885;BME280;43703;51.060;-0.086;2023-02-21T00:36:33;100752.89;;;4.94;82.50
57885;BME280;43703;51.060;-0.086;2023-02-21T00:38:58;100746.14;;;4.16;83.78
57885;BME280;43703;51.060;-0.086;2023-02-21T00:41:24;100742.46;;;5.43;81.43
57885;BME280;43703;51.060;-0.086;2023-02-21T00:43:49;100736.69;;;5.06;81.82
57885;BME280;43703;51.060;-0.086;2023-02-21T00:46:15;100731.37;;;4.54;83.13
57885;BME280;43703;51.060;-0.086;2023-02-21T00:48:40;100726.71;;;4.93;81.92
57885;BME280;43703;51.060;-0.086;2023-02-21T00:51:05;100720.62;;;5.08;83.42
57885;BME280;43703;51.060;-0.086;2023-02-21T00:53:30;100718.27;;;4.67;82.83
57885;BME280;43703;51.060;-0.086;2023-02-21T00:55:56;100718.71;;;5.05;81.46
57885;BME280;43703;51.060;-0.086;2023-02-21T00:58:21;100719.20;;;4.74;82.71
57885;BME280;43703;51.060;-0.086;2023-02-21T01:00:47;100716.86;;;4.31;83.23
57885;BME280;43703;51.060;-0.086;2023-02-21T01:03:12;100715.82;;;4.86;81.76
57885;BME280;43703;51.060;-0.086;2023-02-21T01:05:38;100714.15;;;5.10;80.11
57885;BME280;43703;51.060;-0.086;2023-02-21T01:08:03;100711.18;;;4.65;83.80
57885;BME280;43703;51.060;-0.086;2023-02-21T01:10:29;100711.01;;;5.35;79.34
57885;BME280;43703;51.060;-0.086;2023-02-21T01:12:55;100707.25;;;5.04;80.48
57885;BME280;43703;51.060;-0.086;2023-02-21T01:15:20;100710.36;;;5.48;80.10
57885;BME280;43703;51.060;-0.086;2023-02-21T01:17:45;100706.36;;;4.69;79.97
57885;BME280;43703;51.060;-0.086;2023-02-21T01:20:11;100706.27;;;4.64;81.92
57885;BME280;43703;51.060;-0.086;2023-02-21T01:22:36;100699.77;;;4.80;82.03
57885;BME280;43703;51.060;-0.086;2023-02-21T01:25:01;100693.21;;;5.20;81.48
57885;BME280;43703;51.060;-0.086;2023-02-21T01:27:26;100692.14;;;4.90;80.58
57885;BME280;43703;51.060;-0.086;2023-02-21T01:29:52;100689.21;;;4.92;80.52
57885;BME280;43703;51.060;-0.086;2023-02-21T01:32:17;100689.28;;;4.61;81.92
57885;BME280;43703;51.060;-0.086;2023-02-21T01:34:42;100687.25;;;4.82;80.30
57885;BME280;43703;51.060;-0.086;2023-02-21T01:37:07;100684.26;;;4.24;82.14
57885;BME280;43703;51.060;-0.086;2023-02-21T01:39:33;100683.49;;;4.60;81.30
57885;BME280;43703;51.060;-0.086;2023-02-21T01:41:59;100685.40;;;4.30;82.47
57885;BME280;43703;51.060;-0.086;2023-02-21T01:44:32;100683.28;;;5.13;79.29
57885;BME280;43703;51.060;-0.086;2023-02-21T01:46:49;100682.57;;;4.80;81.20
57885;BME280;43703;51.060;-0.086;2023-02-21T01:49:16;100681.02;;;5.70;77.10
57885;BME280;43703;51.060;-0.086;2023-02-21T01:51:41;100678.27;;;5.78;76.80
57885;BME280;43703;51.060;-0.086;2023-02-21T01:54:06;100677.07;;;4.92;79.00
57885;BME280;43703;51.060;-0.086;2023-02-21T01:56:31;100674.92;;;4.73;80.11
57885;BME280;43703;51.060;-0.086;2023-02-21T01:59:00;100673.36;;;5.64;79.47
57885;BME280;43703;51.060;-0.086;2023-02-21T02:01:30;100674.59;;;5.44;78.39
57885;BME280;43703;51.060;-0.086;2023-02-21T02:03:48;100669.70;;;5.51;78.42
57885;BME280;43703;51.060;-0.086;2023-02-21T02:06:16;100665.55;;;5.35;78.22
57885;BME280;43703;51.060;-0.086;2023-02-21T02:08:39;100660.43;;;4.98;79.67
57885;BME280;43703;51.060;-0.086;2023-02-21T02:11:13;100659.08;;;4.60;81.54
57885;BME280;43703;51.060;-0.086;2023-02-21T02:13:45;100651.06;;;4.85;82.11
57885;BME280;43703;51.060;-0.086;2023-02-21T02:15:58;100645.66;;;5.81;79.59
57885;BME280;43703;51.060;-0.086;2023-02-21T02:18:36;100641.90;;;5.43;77.50
57885;BME280;43703;51.060;-0.086;2023-02-21T02:25:51;100638.34;;;5.06;80.60
57885;BME280;43703;51.060;-0.086;2023-02-21T02:28:09;100634.09;;;5.07;79.43
57885;BME280;43703;51.060;-0.086;2023-02-21T02:30:39;100630.08;;;5.67;78.51
57885;BME280;43703;51.060;-0.086;2023-02-21T02:33:04;100626.52;;;5.25;78.75
57885;BME280;43703;51.060;-0.086;2023-02-21T02:35:19;100628.82;;;5.86;76.70
57885;BME280;43703;51.060;-0.086;2023-02-21T02:37:48;100621.81;;;5.29;77.98
57885;BME280;43703;51.060;-0.086;2023-02-21T02:40:14;100616.90;;;5.19;79.13
57885;BME280;43703;51.060;-0.086;2023-02-21T02:42:43;100610.50;;;4.75;80.98
57885;BME280;43703;51.060;-0.086;2023-02-21T02:45:06;100612.98;;;4.49;80.64
57885;BME280;43703;51.060;-0.086;2023-02-21T02:47:30;100615.99;;;4.87;80.70
57885;BME280;43703;51.060;-0.086;2023-02-21T02:49:51;100613.33;;;5.33;79.34
57885;BME280;43703;51.060;-0.086;2023-02-21T02:52:17;100613.42;;;5.58;78.28
57885;BME280;43703;51.060;-0.086;2023-02-21T02:54:42;100610.95;;;5.22;78.25
57885;BME280;43703;51.060;-0.086;2023-02-21T02:57:09;100611.33;;;5.66;77.53
57885;BME280;43703;51.060;-0.086;2023-02-21T02:59:33;100608.37;;;5.32;78.53
57885;BME280;43703;51.060;-0.086;2023-02-21T03:02:13;100605.95;;;5.19;79.36
57885;BME280;43703;51.060;-0.086;2023-02-21T03:04:36;100609.52;;;5.75;77.45
57885;BME280;43703;51.060;-0.086;2023-02-21T03:06:55;100602.49;;;6.08;76.10
57885;BME280;43703;51.060;-0.086;2023-02-21T03:09:18;100601.12;;;5.89;76.82
57885;BME280;43703;51.060;-0.086;2023-02-21T03:11:49;100598.81;;;5.86;75.46
57885;BME280;43703;51.060;-0.086;2023-02-21T03:14:12;100598.88;;;6.16;73.44
57885;BME280;43703;51.060;-0.086;2023-02-21T03:16:37;100600.10;;;6.69;73.85
57885;BME280;43703;51.060;-0.086;2023-02-21T03:19:01;100599.13;;;5.08;75.89
57885;BME280;43703;51.060;-0.086;2023-02-21T03:21:27;100598.98;;;5.12;76.77
57885;BME280;43703;51.060;-0.086;2023-02-21T03:23:52;100598.92;;;5.61;76.27
57885;BME280;43703;51.060;-0.086;2023-02-21T03:26:16;100593.36;;;4.88;79.41
57885;BME280;43703;51.060;-0.086;2023-02-21T03:28:40;100589.76;;;5.89;75.63
57885;BME280;43703;51.060;-0.086;2023-02-21T03:31:08;100585.15;;;4.77;79.46
57885;BME280;43703;51.060;-0.086;2023-02-21T03:33:31;100581.60;;;5.35;77.28
57885;BME280;43703;51.060;-0.086;2023-02-21T03:35:58;100580.02;;;5.05;79.24
57885;BME280;43703;51.060;-0.086;2023-02-21T03:38:22;100582.92;;;5.03;79.37
57885;BME280;43703;51.060;-0.086;2023-02-21T03:40:48;100585.94;;;5.08;79.48
57885;BME280;43703;51.060;-0.086;2023-02-21T03:43:13;100586.02;;;5.36;77.23
57885;BME280;43703;51.060;-0.086;2023-02-21T03:45:39;100583.39;;;5.64;77.36
57885;BME280;43703;51.060;-0.086;2023-02-21T03:48:05;100583.73;;;5.46;77.31
57885;BME280;43703;51.060;-0.086;2023-02-21T03:50:30;100576.71;;;5.00;77.22
57885;BME280;43703;51.060;-0.086;2023-02-21T03:52:56;100572.47;;;4.99;78.35
57885;BME280;43703;51.060;-0.086;2023-02-21T03:55:21;100572.21;;;5.01;79.03
57885;BME280;43703;51.060;-0.086;2023-02-21T03:57:47;100575.80;;;5.23;78.91
57885;BME280;43703;51.060;-0.086;2023-02-21T04:00:13;100570.57;;;5.54;77.51
57885;BME280;43703;51.060;-0.086;2023-02-21T04:02:38;100568.92;;;5.28;77.68
57885;BME280;43703;51.060;-0.086;2023-02-21T04:05:04;100569.68;;;6.11;75.97
57885;BME280;43703;51.060;-0.086;2023-02-21T04:07:28;100570.15;;;5.55;76.19
57885;BME280;43703;51.060;-0.086;2023-02-21T04:09:54;100569.68;;;5.37;77.37
57885;BME280;43703;51.060;-0.086;2023-02-21T04:12:19;100562.97;;;6.92;72.91
57885;BME280;43703;51.060;-0.086;2023-02-21T04:14:44;100565.22;;;5.30;76.18
57885;BME280;43703;51.060;-0.086;2023-02-21T04:17:10;100566.89;;;5.40;77.32
57885;BME280;43703;51.060;-0.086;2023-02-21T04:19:35;100560.20;;;4.34;78.82
57885;BME280;43703;51.060;-0.086;2023-02-21T04:22:00;100562.94;;;5.42;76.90
57885;BME280;43703;51.060;-0.086;2023-02-21T04:24:26;100559.60;;;5.91;76.92
57885;BME280;43703;51.060;-0.086;2023-02-21T04:26:51;100556.54;;;6.23;72.58
57885;BME280;43703;51.060;-0.086;2023-02-21T04:29:17;100558.38;;;5.66;74.32
57885;BME280;43703;51.060;-0.086;2023-02-21T04:31:42;100556.00;;;5.13;77.83
57885;BME280;43703;51.060;-0.086;2023-02-21T04:34:08;100554.65;;;5.58;75.07
57885;BME280;43703;51.060;-0.086;2023-02-21T04:36:34;100551.34;;;4.95;77.58
57885;BME280;43703;51.060;-0.086;2023-02-21T04:38:59;100548.06;;;5.80;73.55
57885;BME280;43703;51.060;-0.086;2023-02-21T04:41:25;100546.13;;;5.33;76.75
57885;BME280;43703;51.060;-0.086;2023-02-21T04:43:50;100544.59;;;5.20;76.47
57885;BME280;43703;51.060;-0.086;2023-02-21T04:46:18;100546.60;;;5.30;75.78
57885;BME280;43703;51.060;-0.086;2023-02-21T04:48:40;100541.32;;;6.04;74.23
57885;BME280;43703;51.060;-0.086;2023-02-21T04:51:05;100533.49;;;6.12;73.43
57885;BME280;43703;51.060;-0.086;2023-02-21T04:53:30;100529.64;;;5.72;72.85
57885;BME280;43703;51.060;-0.086;2023-02-21T04:55:56;100529.17;;;6.11;72.45
57885;BME280;43703;51.060;-0.086;2023-02-21T04:58:22;100528.38;;;5.97;73.56
57885;BME280;43703;51.060;-0.086;2023-02-21T05:00:48;100526.38;;;5.74;73.16
57885;BME280;43703;51.060;-0.086;2023-02-21T05:03:13;100525.58;;;6.17;72.56
57885;BME280;43703;51.060;-0.086;2023-02-21T05:05:39;100524.59;;;5.95;74.22
57885;BME280;43703;51.060;-0.086;2023-02-21T05:08:04;100518.76;;;6.33;72.81
57885;BME280;43703;51.060;-0.086;2023-02-21T05:10:29;100516.84;;;6.34;71.51
57885;BME280;43703;51.060;-0.086;2023-02-21T05:12:55;100520.26;;;5.68;74.36
57885;BME280;43703;51.060;-0.086;2023-02-21T05:15:20;100521.18;;;6.23;73.37
57885;BME280;43703;51.060;-0.086;2023-02-21T05:17:45;100527.82;;;5.66;74.14
57885;BME280;43703;51.060;-0.086;2023-02-21T05:20:11;100524.43;;;6.07;72.31
57885;BME280;43703;51.060;-0.086;2023-02-21T05:22:36;100521.37;;;5.95;73.59
57885;BME280;43703;51.060;-0.086;2023-02-21T05:25:02;100527.42;;;5.22;75.53
57885;BME280;43703;51.060;-0.086;2023-02-21T05:27:27;100526.88;;;5.34;75.64
57885;BME280;43703;51.060;-0.086;2023-02-21T05:29:53;100524.37;;;6.30;72.89
57885;BME280;43703;51.060;-0.086;2023-02-21T05:32:19;100524.34;;;5.83;73.32
57885;BME280;43703;51.060;-0.086;2023-02-21T05:34:43;100524.90;;;4.77;76.96
57885;BME280;43703;51.060;-0.086;2023-02-21T05:37:09;100524.81;;;5.46;75.19
57885;BME280;43703;51.060;-0.086;2023-02-21T05:39:35;100520.80;;;5.49;74.54
57885;BME280;43703;51.060;-0.086;2023-02-21T05:41:59;100521.48;;;5.42;74.06
57885;BME280;43703;51.060;-0.086;2023-02-21T05:44:24;100518.51;;;6.29;72.50
57885;BME280;43703;51.060;-0.086;2023-02-21T05:46:50;100525.50;;;5.80;74.88
57885;BME280;43703;51.060;-0.086;2023-02-21T05:49:15;100518.24;;;6.40;72.46
57885;BME280;43703;51.060;-0.086;2023-02-21T05:51:42;100518.47;;;5.57;73.71
57885;BME280;43703;51.060;-0.086;2023-02-21T05:54:07;100515.47;;;6.28;72.79
57885;BME280;43703;51.060;-0.086;2023-02-21T05:56:37;100514.16;;;5.86;73.26
57885;BME280;43703;51.060;-0.086;2023-02-21T05:58:56;100518.80;;;5.47;74.00
57885;BME280;43703;51.060;-0.086;2023-02-21T06:01:22;100513.66;;;6.33;72.15
57885;BME280;43703;51.060;-0.086;2023-02-21T06:03:47;100513.24;;;5.79;72.80
57885;BME280;43703;51.060;-0.086;2023-02-21T06:06:14;100514.56;;;5.52;74.48
57885;BME280;43703;51.060;-0.086;2023-02-21T06:08:43;100514.90;;;5.42;74.24
57885;BME280;43703;51.060;-0.086;2023-02-21T06:11:02;100514.37;;;5.68;73.87
57885;BME280;43703;51.060;-0.086;2023-02-21T06:13:28;100513.88;;;5.39;75.54
57885;BME280;43703;51.060;-0.086;2023-02-21T06:15:54;100513.93;;;5.33;74.76
57885;BME280;43703;51.060;-0.086;2023-02-21T06:18:18;100512.64;;;5.13;76.08
57885;BME280;43703;51.060;-0.086;2023-02-21T06:20:43;100509.37;;;5.39;76.35
57885;BME280;43703;51.060;-0.086;2023-02-21T06:23:09;100508.64;;;4.94;77.23
57885;BME280;43703;51.060;-0.086;2023-02-21T06:25:34;100507.69;;;6.19;73.45
57885;BME280;43703;51.060;-0.086;2023-02-21T06:27:59;100509.95;;;6.08;72.95
57885;BME280;43703;51.060;-0.086;2023-02-21T06:30:25;100509.01;;;6.21;71.58
57885;BME280;43703;51.060;-0.086;2023-02-21T06:32:50;100505.95;;;5.95;71.71
57885;BME280;43703;51.060;-0.086;2023-02-21T06:35:21;100507.87;;;6.36;71.49
57885;BME280;43703;51.060;-0.086;2023-02-21T06:37:41;100504.87;;;6.60;70.72
57885;BME280;43703;51.060;-0.086;2023-02-21T06:40:07;100503.41;;;6.47;70.80
57885;BME280;43703;51.060;-0.086;2023-02-21T06:42:32;100500.94;;;6.73;70.09
57885;BME280;43703;51.060;-0.086;2023-02-21T06:44:57;100499.32;;;6.75;69.93
57885;BME280;43703;51.060;-0.086;2023-02-21T06:47:23;100499.71;;;6.47;70.31
57885;BME280;43703;51.060;-0.086;2023-02-21T06:49:48;100500.97;;;6.51;70.92
57885;BME280;43703;51.060;-0.086;2023-02-21T06:52:14;100502.72;;;6.29;71.43
57885;BME280;43703;51.060;-0.086;2023-02-21T06:54:39;100502.75;;;5.68;73.39
57885;BME280;43703;51.060;-0.086;2023-02-21T06:57:04;100503.50;;;6.59;71.71
57885;BME280;43703;51.060;-0.086;2023-02-21T06:59:31;100510.24;;;5.50;73.57
57885;BME280;43703;51.060;-0.086;2023-02-21T07:01:56;100511.56;;;5.72;74.47
57885;BME280;43703;51.060;-0.086;2023-02-21T07:04:21;100506.15;;;6.89;71.10
57885;BME280;43703;51.060;-0.086;2023-02-21T07:06:47;100505.55;;;6.03;72.60
57885;BME280;43703;51.060;-0.086;2023-02-21T07:09:12;100507.83;;;6.72;71.51
57885;BME280;43703;51.060;-0.086;2023-02-21T07:11:38;100509.72;;;6.69;70.30
57885;BME280;43703;51.060;-0.086;2023-02-21T07:14:03;100508.64;;;6.33;70.16
57885;BME280;43703;51.060;-0.086;2023-02-21T07:16:29;100507.85;;;6.59;70.55
57885;BME280;43703;51.060;-0.086;2023-02-21T07:18:54;100507.57;;;5.95;72.70
57885;BME280;43703;51.060;-0.086;2023-02-21T07:21:20;100507.55;;;6.36;71.43
57885;BME280;43703;51.060;-0.086;2023-02-21T07:23:47;100511.46;;;6.08;72.08
57885;BME280;43703;51.060;-0.086;2023-02-21T07:26:11;100507.56;;;6.57;71.64
57885;BME280;43703;51.060;-0.086;2023-02-21T07:28:36;100505.46;;;6.84;70.71
57885;BME280;43703;51.060;-0.086;2023-02-21T07:31:01;100503.00;;;7.19;69.73
57885;BME280;43703;51.060;-0.086;2023-02-21T07:33:27;100505.28;;;7.34;69.57
57885;BME280;43703;51.060;-0.086;2023-02-21T07:35:52;100506.56;;;7.53;68.75
57885;BME280;43703;51.060;-0.086;2023-02-21T07:38:19;100511.20;;;6.54;69.54
57885;BME280;43703;51.060;-0.086;2023-02-21T07:40:44;100510.47;;;6.33;71.10
57885;BME280;43703;51.060;-0.086;2023-02-21T07:43:09;100504.92;;;7.16;69.61
57885;BME280;43703;51.060;-0.086;2023-02-21T07:45:35;100506.74;;;7.45;67.65
57885;BME280;43703;51.060;-0.086;2023-02-21T07:48:00;100511.32;;;6.34;69.69
57885;BME280;43703;51.060;-0.086;2023-02-21T07:50:26;100512.63;;;6.24;70.23
57885;BME280;43703;51.060;-0.086;2023-02-21T07:52:51;100510.96;;;7.11;68.41
57885;BME280;43703;51.060;-0.086;2023-02-21T07:55:17;100521.12;;;5.24;73.50
57885;BME280;43703;51.060;-0.086;2023-02-21T07:57:42;100519.41;;;6.00;73.13
57885;BME280;43703;51.060;-0.086;2023-02-21T08:00:09;100520.05;;;6.36;71.95
57885;BME280;43703;51.060;-0.086;2023-02-21T08:02:33;100516.45;;;7.60;70.17
57885;BME280;43703;51.060;-0.086;2023-02-21T08:04:58;100517.48;;;7.26;68.93
57885;BME280;43703;51.060;-0.086;2023-02-21T08:07:23;100526.59;;;6.22;71.27
57885;BME280;43703;51.060;-0.086;2023-02-21T08:09:48;100522.80;;;6.75;70.85
57885;BME280;43703;51.060;-0.086;2023-02-21T08:12:14;100524.29;;;6.87;69.96
57885;BME280;43703;51.060;-0.086;2023-02-21T08:14:39;100522.47;;;7.15;69.17
57885;BME280;43703;51.060;-0.086;2023-02-21T08:17:04;100524.88;;;7.88;67.41
57885;BME280;43703;51.060;-0.086;2023-02-21T08:19:30;100528.90;;;8.18;67.28
57885;BME280;43703;51.060;-0.086;2023-02-21T08:21:55;100531.66;;;5.97;70.23
57885;BME280;43703;51.060;-0.086;2023-02-21T08:24:21;100531.34;;;7.22;70.15
57885;BME280;43703;51.060;-0.086;2023-02-21T08:26:46;100529.91;;;7.18;69.08
57885;BME280;43703;51.060;-0.086;2023-02-21T08:29:12;100530.43;;;7.84;66.90
57885;BME280;43703;51.060;-0.086;2023-02-21T08:31:38;100534.03;;;7.79;68.18
57885;BME280;43703;51.060;-0.086;2023-02-21T08:34:03;100533.43;;;8.67;64.99
57885;BME280;43703;51.060;-0.086;2023-02-21T08:36:30;100535.57;;;8.65;64.39
57885;BME280;43703;51.060;-0.086;2023-02-21T08:38:53;100532.92;;;7.80;67.07
57885;BME280;43703;51.060;-0.086;2023-02-21T08:41:19;100532.16;;;6.63;69.60
57885;BME280;43703;51.060;-0.086;2023-02-21T08:43:45;100530.27;;;6.45;70.38
57885;BME280;43703;51.060;-0.086;2023-02-21T08:46:10;100528.96;;;7.29;68.79
57885;BME280;43703;51.060;-0.086;2023-02-21T08:48:36;100529.44;;;6.38;70.72
57885;BME280;43703;51.060;-0.086;2023-02-21T08:51:03;100529.90;;;7.15;69.14
57885;BME280;43703;51.060;-0.086;2023-02-21T08:53:26;100532.70;;;7.45;69.07
57885;BME280;43703;51.060;-0.086;2023-02-21T08:55:52;100533.22;;;6.83;71.18
57885;BME280;43703;51.060;-0.086;2023-02-21T08:58:17;100530.10;;;6.53;71.57
57885;BME280;43703;51.060;-0.086;2023-02-21T09:00:42;100527.67;;;6.82;70.97
57885;BME280;43703;51.060;-0.086;2023-02-21T09:03:08;100524.71;;;7.94;68.73
57885;BME280;43703;51.060;-0.086;2023-02-21T09:05:33;100525.16;;;8.06;68.68
57885;BME280;43703;51.060;-0.086;2023-02-21T09:07:59;100523.50;;;7.70;67.77
57885;BME280;43703;51.060;-0.086;2023-02-21T09:10:25;100525.66;;;6.90;70.50
57885;BME280;43703;51.060;-0.086;2023-02-21T09:12:49;100524.68;;;8.26;68.87
57885;BME280;43703;51.060;-0.086;2023-02-21T09:15:14;100524.67;;;7.87;68.59
57885;BME280;43703;51.060;-0.086;2023-02-21T09:17:39;100521.58;;;8.59;66.87
57885;BME280;43703;51.060;-0.086;2023-02-21T09:20:07;100522.31;;;9.48;63.53
57885;BME280;43703;51.060;-0.086;2023-02-21T09:22:30;100523.64;;;7.61;67.12
57885;BME280;43703;51.060;-0.086;2023-02-21T09:24:56;100519.02;;;6.87;69.24
57885;BME280;43703;51.060;-0.086;2023-02-21T09:27:21;100516.09;;;7.71;68.80
57885;BME280;43703;51.060;-0.086;2023-02-21T09:29:47;100517.13;;;7.95;68.80
57885;BME280;43703;51.060;-0.086;2023-02-21T09:32:13;100517.04;;;8.11;68.55
57885;BME280;43703;51.060;-0.086;2023-02-21T09:34:38;100512.87;;;8.33;68.04
57885;BME280;43703;51.060;-0.086;2023-02-21T09:37:04;100511.25;;;7.84;68.45
57885;BME280;43703;51.060;-0.086;2023-02-21T09:39:29;100510.74;;;7.60;68.57
57885;BME280;43703;51.060;-0.086;2023-02-21T09:41:55;100512.22;;;6.45;72.67
57885;BME280;43703;51.060;-0.086;2023-02-21T09:44:23;100508.11;;;6.65;72.41
57885;BME280;43703;51.060;-0.086;2023-02-21T09:46:48;100503.92;;;7.53;70.79
57885;BME280;43703;51.060;-0.086;2023-02-21T09:49:15;100504.94;;;7.53;69.89
57885;BME280;43703;51.060;-0.086;2023-02-21T09:51:37;100504.74;;;7.33;70.08
57885;BME280;43703;51.060;-0.086;2023-02-21T09:54:03;100507.33;;;6.63;72.31
57885;BME280;43703;51.060;-0.086;2023-02-21T09:56:30;100501.87;;;7.58;70.00
57885;BME280;43703;51.060;-0.086;2023-02-21T09:58:54;100502.47;;;7.13;71.75
57885;BME280;43703;51.060;-0.086;2023-02-21T10:01:24;100502.79;;;8.41;66.36
57885;BME280;43703;51.060;-0.086;2023-02-21T10:03:45;100500.13;;;7.75;69.02
57885;BME280;43703;51.060;-0.086;2023-02-21T10:06:19;100500.22;;;8.06;69.41
57885;BME280;43703;51.060;-0.086;2023-02-21T10:08:40;100499.98;;;7.71;69.39
57885;BME280;43703;51.060;-0.086;2023-02-21T10:11:09;100496.02;;;6.80;70.69
57885;BME280;43703;51.060;-0.086;2023-02-21T10:13:33;100494.74;;;8.11;69.80
57885;BME280;43703;51.060;-0.086;2023-02-21T10:15:54;100496.50;;;7.25;68.79
57885;BME280;43703;51.060;-0.086;2023-02-21T10:18:26;100497.24;;;6.70;72.65
57885;BME280;43703;51.060;-0.086;2023-02-21T10:20:47;100496.75;;;5.85;73.86
57885;BME280;43703;51.060;-0.086;2023-02-21T10:23:14;100493.28;;;7.82;70.29
57885;BME280;43703;51.060;-0.086;2023-02-21T10:25:33;100493.65;;;7.45;69.68
57885;BME280;43703;51.060;-0.086;2023-02-21T10:27:59;100492.41;;;7.11;71.23
57885;BME280;43703;51.060;-0.086;2023-02-21T10:30:28;100492.89;;;7.10;72.09
57885;BME280;43703;51.060;-0.086;2023-02-21T10:32:49;100489.34;;;7.82;70.83
57885;BME280;43703;51.060;-0.086;2023-02-21T10:35:15;100488.51;;;8.94;67.10
57885;BME280;43703;51.060;-0.086;2023-02-21T10:37:42;100492.57;;;8.26;68.63
57885;BME280;43703;51.060;-0.086;2023-02-21T10:40:17;100491.28;;;7.59;68.86
57885;BME280;43703;51.060;-0.086;2023-02-21T10:42:37;100492.12;;;7.50;71.95
57885;BME280;43703;51.060;-0.086;2023-02-21T10:44:58;100494.76;;;6.96;73.82
57885;BME280;43703;51.060;-0.086;2023-02-21T10:47:28;100496.47;;;6.10;74.04
57885;BME280;43703;51.060;-0.086;2023-02-21T10:49:53;100496.13;;;6.86;74.68
57885;BME280;43703;51.060;-0.086;2023-02-21T10:52:15;100493.24;;;5.95;75.13
57885;BME280;43703;51.060;-0.086;2023-02-21T10:54:39;100494.26;;;6.11;75.58
57885;BME280;43703;51.060;-0.086;2023-02-21T10:57:07;100489.83;;;6.72;75.10
57885;BME280;43703;51.060;-0.086;2023-02-21T10:59:31;100488.05;;;7.13;72.81
57885;BME280;43703;51.060;-0.086;2023-02-21T11:01:56;100487.97;;;7.82;71.94
57885;BME280;43703;51.060;-0.086;2023-02-21T11:04:27;100483.83;;;7.77;70.95
57885;BME280;43703;51.060;-0.086;2023-02-21T11:06:48;100481.73;;;8.28;70.33
57885;BME280;43703;51.060;-0.086;2023-02-21T11:09:23;100478.49;;;7.47;71.56
57885;BME280;43703;51.060;-0.086;2023-02-21T11:11:39;100477.57;;;8.23;69.58
57885;BME280;43703;51.060;-0.086;2023-02-21T11:16:28;100472.54;;;7.20;69.48
57885;BME280;43703;51.060;-0.086;2023-02-21T11:19:02;100474.91;;;8.04;70.38
57885;BME280;43703;51.060;-0.086;2023-02-21T11:21:19;100471.09;;;8.64;67.34
57885;BME280;43703;51.060;-0.086;2023-02-21T11:23:46;100471.65;;;8.36;68.10
57885;BME280;43703;51.060;-0.086;2023-02-21T11:26:11;100467.48;;;8.53;68.53
57885;BME280;43703;51.060;-0.086;2023-02-21T11:28:37;100468.28;;;8.78;66.54
57885;BME280;43703;51.060;-0.086;2023-02-21T11:31:10;100461.07;;;8.78;67.41
57885;BME280;43703;51.060;-0.086;2023-02-21T11:33:28;100457.94;;;7.76;68.30
57885;BME280;43703;51.060;-0.086;2023-02-21T11:36:05;100456.21;;;7.57;69.57
57885;BME280;43703;51.060;-0.086;2023-02-21T11:40:46;100445.43;;;8.21;68.04
57885;BME280;43703;51.060;-0.086;2023-02-21T11:43:12;100443.01;;;7.93;69.13
57885;BME280;43703;51.060;-0.086;2023-02-21T11:45:35;100439.89;;;7.79;69.88
57885;BME280;43703;51.060;-0.086;2023-02-21T11:48:03;100439.88;;;7.98;70.19
57885;BME280;43703;51.060;-0.086;2023-02-21T11:50:26;100441.81;;;8.67;67.74
57885;BME280;43703;51.060;-0.086;2023-02-21T11:52:55;100439.36;;;7.27;69.84
57885;BME280;43703;51.060;-0.086;2023-02-21T11:55:17;100433.70;;;6.37;70.58
57885;BME280;43703;51.060;-0.086;2023-02-21T11:57:44;100431.88;;;8.27;68.21
57885;BME280;43703;51.060;-0.086;2023-02-21T12:00:14;100428.00;;;7.06;71.62
57885;BME280;43703;51.060;-0.086;2023-02-21T12:02:44;100425.23;;;7.75;69.36
57885;BME280;43703;51.060;-0.086;2023-02-21T12:05:08;100422.95;;;8.18;67.34
57885;BME280;43703;51.060;-0.086;2023-02-21T12:07:27;100419.34;;;7.58;69.25
57885;BME280;43703;51.060;-0.086;2023-02-21T12:09:51;100413.81;;;7.58;67.99
57885;BME280;43703;51.060;-0.086;2023-02-21T12:12:25;100408.90;;;7.71;68.12
57885;BME280;43703;51.060;-0.086;2023-02-21T12:14:47;100407.55;;;6.87;69.28
57885;BME280;43703;51.060;-0.086;2023-02-21T12:17:13;100404.91;;;8.43;67.50
57885;BME280;43703;51.060;-0.086;2023-02-21T12:19:38;100401.51;;;8.89;64.14
57885;BME280;43703;51.060;-0.086;2023-02-21T12:22:01;100405.76;;;7.79;66.68
57885;BME280;43703;51.060;-0.086;2023-02-21T12:24:27;100400.65;;;7.44;68.90
57885;BME280;43703;51.060;-0.086;2023-02-21T12:26:50;100397.96;;;7.65;68.71
57885;BME280;43703;51.060;-0.086;2023-02-21T12:29:17;100395.31;;;8.24;66.78
57885;BME280;43703;51.060;-0.086;2023-02-21T12:31:43;100390.74;;;7.94;67.91
57885;BME280;43703;51.060;-0.086;2023-02-21T12:34:08;100388.01;;;8.05;67.13
57885;BME280;43703;51.060;-0.086;2023-02-21T12:36:29;100384.62;;;7.16;68.83
57885;BME280;43703;51.060;-0.086;2023-02-21T12:38:53;100381.04;;;6.29;70.22
57885;BME280;43703;51.060;-0.086;2023-02-21T12:41:22;100380.63;;;7.36;70.64
57885;BME280;43703;51.060;-0.086;2023-02-21T12:43:44;100374.90;;;8.25;68.01
57885;BME280;43703;51.060;-0.086;2023-02-21T12:46:06;100369.58;;;8.37;65.70
57885;BME280;43703;51.060;-0.086;2023-02-21T12:48:32;100364.16;;;8.60;63.80